»·PEaware :: SWA1848 KMRY-KSAN

SWA1848 :: KMRY-KSAN

FLIGHT INFORMATION

Flight Status: Arrived
Operator:
Southwest Airlines
More flights by this operator :: More flights under this callsign
Pilot: Will K. (13011)
Aircraft: BOEING 737-700
(B737)
More flights by this aircraft type
Origin: KMRY Monterey Peninsula
United States
Destination: KSAN San Diego Intl-Lindbergh
United States
More flights between these airports :: More routes between these airports
Route: +MRY4 SERFR MCKEY LAX COMIX1
File this flight plan on PilotEdge
Remarks:
Altitude:
(Current/Filed)
33,000ft
Speed:
(Current/Filed)
320kts
Departed: 11-May-18 08:14 PM
Arrived: 11-May-18 09:21 PM
Distance/Time
Traveled:
326nm/1:07
Distance/Time
To Go:
Arrived

Flight Plot

Page will automatically refresh every two minutes.

Flight plan parsing failed; only flown route is shown


Map Options




Map Legend


Flown Route
Filed Route
Departure Airport
Arrival Airport
Navaid (VOR, NDB)
Fix

Horizontal Profiles

Position Reports

Time Latitude Longitude Heading Altitude Ground
Speed
11-May-18 19:44 36.587632 -121.849960 238 212ft 0kts
11-May-18 19:45 36.587632 -121.849960 238 212ft 0kts
11-May-18 19:46 36.587632 -121.849960 238 212ft 0kts
11-May-18 19:47 36.587632 -121.849960 238 212ft 0kts
11-May-18 19:48 36.587632 -121.849960 238 212ft 0kts
11-May-18 19:49 36.587632 -121.849960 238 212ft 0kts
11-May-18 19:50 36.587632 -121.849960 238 212ft 0kts
11-May-18 19:51 36.587632 -121.849960 238 212ft 0kts
11-May-18 19:52 36.587632 -121.849960 238 212ft 0kts
11-May-18 19:53 36.587632 -121.849960 238 212ft 0kts
11-May-18 19:54 36.587632 -121.849960 238 212ft 0kts
11-May-18 19:55 36.587632 -121.849960 238 212ft 0kts
11-May-18 19:56 36.587632 -121.849960 238 212ft 0kts
11-May-18 19:57 36.587632 -121.849960 238 212ft 0kts
11-May-18 19:58 36.587632 -121.849960 238 212ft 0kts
11-May-18 19:59 36.587632 -121.849960 238 212ft 0kts
11-May-18 20:00 36.587918 -121.849351 239 212ft 2kts
11-May-18 20:01 36.587959 -121.849263 239 212ft 0kts
11-May-18 20:02 36.587959 -121.849263 239 212ft 0kts
11-May-18 20:03 36.587959 -121.849263 239 212ft 0kts
11-May-18 20:04 36.587959 -121.849263 239 212ft 0kts
11-May-18 20:05 36.587959 -121.849263 239 212ft 0kts
11-May-18 20:06 36.587959 -121.849263 239 212ft 0kts
11-May-18 20:07 36.587900 -121.849303 192 212ft 3kts
11-May-18 20:08 36.586679 -121.846131 124 212ft 13kts
11-May-18 20:09 36.585157 -121.841821 111 212ft 10kts
11-May-18 20:10 36.583796 -121.837795 113 212ft 12kts
11-May-18 20:11 36.582890 -121.834963 100 212ft 0kts
11-May-18 20:12 36.582889 -121.834961 100 212ft 0kts
11-May-18 20:13 36.582865 -121.834160 86 212ft 10kts
11-May-18 20:14 36.584002 -121.835497 291 213ft 54kts
11-May-18 20:15 36.603482 -121.879456 319 1499ft 201kts
11-May-18 20:16 36.663978 -121.903408 342 3950ft 251kts
11-May-18 20:17 36.736242 -121.931496 342 7232ft 277kts
11-May-18 20:18 36.807817 -121.959892 328 10312ft 277kts
11-May-18 20:19 36.815167 -122.057558 238 12542ft 352kts
11-May-18 20:20 36.719224 -122.069984 143 15410ft 410kts
11-May-18 20:21 36.667982 -121.943226 104 18086ft 425kts
11-May-18 20:22 36.627712 -121.801249 116 20550ft 448kts
11-May-18 20:23 36.542848 -121.685167 146 22830ft 461kts
11-May-18 20:24 36.432553 -121.600626 155 24867ft 471kts
11-May-18 20:25 36.315354 -121.524041 155 26746ft 481kts
11-May-18 20:26 36.195095 -121.446252 156 28367ft 491kts
11-May-18 20:27 36.073716 -121.368271 157 30293ft 489kts
11-May-18 20:28 35.949003 -121.306453 163 32452ft 476kts
11-May-18 20:29 35.825273 -121.247319 163 32828ft 475kts
11-May-18 20:30 35.702551 -121.188159 162 32832ft 474kts
11-May-18 20:31 35.579528 -121.129211 163 32854ft 473kts
11-May-18 20:32 35.465311 -121.049588 135 32865ft 486kts
11-May-18 20:33 35.386097 -120.914856 125 32875ft 488kts
11-May-18 20:34 35.309582 -120.778322 126 32888ft 488kts
11-May-18 20:35 35.232045 -120.641030 126 32899ft 488kts
11-May-18 20:36 35.154591 -120.504957 126 32899ft 488kts
11-May-18 20:37 35.076678 -120.368948 126 32898ft 487kts
11-May-18 20:38 34.998986 -120.233959 126 32896ft 486kts
11-May-18 20:39 34.921029 -120.099027 126 32893ft 484kts
11-May-18 20:40 34.843427 -119.965230 126 32893ft 484kts
11-May-18 20:41 34.765786 -119.831885 126 32891ft 483kts
11-May-18 20:42 34.687934 -119.698670 127 32888ft 481kts
11-May-18 20:43 34.610349 -119.566419 127 32900ft 481kts
11-May-18 20:44 34.532776 -119.434658 127 32899ft 480kts
11-May-18 20:45 34.455299 -119.303559 127 32900ft 480kts
11-May-18 20:46 34.377646 -119.172621 127 32900ft 480kts
11-May-18 20:47 34.299371 -119.041149 127 32900ft 479kts
11-May-18 20:48 34.221418 -118.910637 127 32900ft 479kts
11-May-18 20:49 34.146004 -118.784836 127 32316ft 478kts
11-May-18 20:50 34.069148 -118.656676 127 31321ft 471kts
11-May-18 20:51 33.995911 -118.535516 129 30363ft 462kts
11-May-18 20:52 33.936386 -118.437556 130 29571ft 454kts
11-May-18 20:53 33.858256 -118.334318 137 28641ft 446kts
11-May-18 20:54 33.774445 -118.226663 136 27645ft 440kts
11-May-18 20:55 33.692472 -118.118707 136 26645ft 434kts
11-May-18 20:56 33.613771 -118.015724 136 25676ft 429kts
11-May-18 20:57 33.533100 -117.911782 139 24241ft 421kts
11-May-18 20:58 33.449670 -117.816169 140 22260ft 410kts
11-May-18 20:59 33.370346 -117.719996 138 20294ft 400kts
11-May-18 21:00 33.293455 -117.626477 138 18336ft 389kts
11-May-18 21:01 33.213874 -117.547443 150 16339ft 360kts
11-May-18 21:02 33.134202 -117.481236 149 14500ft 328kts
11-May-18 21:03 33.058684 -117.418192 149 12246ft 314kts
11-May-18 21:04 32.992234 -117.362438 148 10722ft 287kts
11-May-18 21:05 32.938071 -117.301208 122 8869ft 286kts
11-May-18 21:06 32.900001 -117.220317 121 7603ft 276kts
11-May-18 21:07 32.863964 -117.143819 121 6317ft 267kts
11-May-18 21:08 32.828571 -117.069081 121 5255ft 243kts
11-May-18 21:09 32.797269 -117.002203 121 4965ft 219kts
11-May-18 21:10 32.768308 -116.939365 121 4971ft 211kts
11-May-18 21:11 32.743957 -116.885410 121 4936ft 169kts
11-May-18 21:12 32.710600 -116.865404 189 3978ft 131kts
11-May-18 21:13 32.677622 -116.879318 247 3993ft 131kts
11-May-18 21:14 32.668699 -116.920498 275 3975ft 130kts
11-May-18 21:15 32.678447 -116.962675 283 3987ft 132kts
11-May-18 21:16 32.688615 -117.004400 283 3916ft 129kts
11-May-18 21:17 32.698562 -117.045372 283 2397ft 131kts
11-May-18 21:18 32.708793 -117.087517 282 1961ft 135kts
11-May-18 21:19 32.719868 -117.131651 282 1154ft 139kts
11-May-18 21:20 32.730222 -117.175499 280 153ft 136kts
11-May-18 21:21 32.735323 -117.197230 269 23ft 17kts
11-May-18 21:22 32.734197 -117.197099 147 23ft 3kts
11-May-18 21:23 32.733186 -117.196862 143 23ft 1kts
11-May-18 21:24 32.733178 -117.196855 143 23ft 0kts
11-May-18 21:25 32.733178 -117.196855 143 23ft 0kts
11-May-18 21:26 32.733178 -117.196855 143 23ft 0kts

Navigation Log

Ident Type
Flight plan parsing failed, navigation log unavailable